Time,TemperatureF,DewpointF,PressureIn,WindDirection,WindDirectionDegrees,WindSpeedMPH,WindSpeedGustMPH,Humidity,HourlyPrecipIn,Conditions,Clouds,dailyrainin,SoftwareType,DateUTC
2013-01-20 00:03:00,43.6,16.4,30.19,SE,142,0.0,0.0,33,0.00,,---,0.00,VWS V14.00,2013-01-20 07:03:00,
2013-01-20 00:08:00,43.4,18.2,30.19,SE,142,0.0,0.0,36,0.00,,---,0.00,VWS V14.00,2013-01-20 07:08:00,
2013-01-20 00:13:00,44.0,18.1,30.19,SE,142,0.0,0.0,35,0.00,,---,0.00,VWS V14.00,2013-01-20 07:13:00,
2013-01-20 00:18:00,43.5,17.7,30.19,SE,142,0.0,0.0,35,0.00,,---,0.00,VWS V14.00,2013-01-20 07:18:00,
2013-01-20 00:23:00,42.9,17.8,30.18,SE,142,0.0,0.0,36,0.00,,---,0.00,VWS V14.00,2013-01-20 07:23:00,
2013-01-20 00:28:00,42.0,17.6,30.19,SE,142,0.0,0.0,37,0.00,,---,0.00,VWS V14.00,2013-01-20 07:28:00,
2013-01-20 00:33:00,41.1,17.4,30.19,SE,142,0.0,0.0,38,0.00,,---,0.00,VWS V14.00,2013-01-20 07:33:00,
2013-01-20 00:38:00,40.1,16.5,30.19,SE,142,0.0,0.0,38,0.00,,---,0.00,VWS V14.00,2013-01-20 07:38:00,
2013-01-20 00:43:00,38.7,15.3,30.19,SE,142,0.0,0.0,38,0.00,,---,0.00,VWS V14.00,2013-01-20 07:43:00,
2013-01-20 00:48:00,37.5,15.4,30.19,SE,142,0.0,0.0,40,0.00,,---,0.00,VWS V14.00,2013-01-20 07:48:00,
2013-01-20 00:53:00,37.0,17.1,30.19,SE,140,0.0,0.0,44,0.00,,---,0.00,VWS V14.00,2013-01-20 07:53:00,
2013-01-20 00:58:00,38.5,16.9,30.19,SE,140,0.0,0.0,41,0.00,,---,0.00,VWS V14.00,2013-01-20 07:58:00,
2013-01-20 01:03:00,39.0,16.7,30.19,SE,140,0.0,0.0,40,0.00,,---,0.00,VWS V14.00,2013-01-20 08:03:00,
2013-01-20 01:08:00,39.2,16.9,30.19,SE,140,0.0,0.0,40,0.00,,---,0.00,VWS V14.00,2013-01-20 08:08:00,
2013-01-20 01:13:00,39.5,17.2,30.19,SE,140,0.0,0.0,40,0.00,,---,0.00,VWS V14.00,2013-01-20 08:13:00,
2013-01-20 01:18:00,39.7,16.8,30.19,SE,140,0.0,0.0,39,0.00,,---,0.00,VWS V14.00,2013-01-20 08:18:00,
2013-01-20 01:23:00,39.8,16.9,30.19,SE,140,0.0,0.0,39,0.00,,---,0.00,VWS V14.00,2013-01-20 08:23:00,
2013-01-20 01:28:00,39.0,16.2,30.19,SE,140,0.0,0.0,39,0.00,,---,0.00,VWS V14.00,2013-01-20 08:28:00,
2013-01-20 01:33:00,38.9,16.6,30.19,SE,140,0.0,0.0,40,0.00,,---,0.00,VWS V14.00,2013-01-20 08:33:00,
2013-01-20 01:38:00,39.4,17.1,30.19,SE,140,0.0,0.0,40,0.00,,---,0.00,VWS V14.00,2013-01-20 08:38:00,
2013-01-20 01:43:00,40.6,17.0,30.19,SE,140,2.0,4.0,38,0.00,,---,0.00,VWS V14.00,2013-01-20 08:43:00,
2013-01-20 01:48:00,41.6,17.9,30.19,SE,140,0.0,4.0,38,0.00,,---,0.00,VWS V14.00,2013-01-20 08:48:00,
2013-01-20 01:53:00,42.4,18.0,30.18,SE,140,0.0,4.0,37,0.00,,---,0.00,VWS V14.00,2013-01-20 08:53:00,
2013-01-20 01:58:00,43.0,17.9,30.18,SE,140,0.0,4.0,36,0.00,,---,0.00,VWS V14.00,2013-01-20 08:58:00,
2013-01-20 02:03:00,43.3,18.2,30.18,SE,140,0.0,0.0,36,0.00,,---,0.00,VWS V14.00,2013-01-20 09:03:00,
2013-01-20 02:08:00,42.8,17.7,30.18,SE,140,0.0,0.0,36,0.00,,---,0.00,VWS V14.00,2013-01-20 09:08:00,
2013-01-20 02:13:00,42.1,17.7,30.18,SE,140,0.0,0.0,37,0.00,,---,0.00,VWS V14.00,2013-01-20 09:13:00,
2013-01-20 02:18:00,41.6,18.5,30.18,SE,140,0.0,0.0,39,0.00,,---,0.00,VWS V14.00,2013-01-20 09:18:00,
2013-01-20 02:23:00,40.1,17.1,30.18,SE,140,0.0,0.0,39,0.00,,---,0.00,VWS V14.00,2013-01-20 09:23:00,
2013-01-20 02:28:00,38.8,17.1,30.18,SE,140,0.0,0.0,41,0.00,,---,0.00,VWS V14.00,2013-01-20 09:28:00,
2013-01-20 02:33:00,37.3,16.3,30.18,SE,140,0.0,0.0,42,0.00,,---,0.00,VWS V14.00,2013-01-20 09:33:00,
2013-01-20 02:38:00,36.2,15.9,30.18,SE,140,0.0,0.0,43,0.00,,---,0.00,VWS V14.00,2013-01-20 09:38:00,
2013-01-20 02:43:00,34.9,15.7,30.18,SE,140,0.0,0.0,45,0.00,,---,0.00,VWS V14.00,2013-01-20 09:43:00,
2013-01-20 02:48:00,34.4,16.8,30.18,SE,140,0.0,0.0,48,0.00,,---,0.00,VWS V14.00,2013-01-20 09:48:00,
2013-01-20 02:53:00,34.0,16.9,30.18,SE,140,0.0,0.0,49,0.00,,---,0.00,VWS V14.00,2013-01-20 09:53:00,
2013-01-20 02:58:00,33.8,17.1,30.18,SE,140,0.0,0.0,50,0.00,,---,0.00,VWS V14.00,2013-01-20 09:58:00,
2013-01-20 03:03:00,33.4,16.8,30.17,SE,140,0.0,0.0,50,0.00,,---,0.00,VWS V14.00,2013-01-20 10:03:00,
2013-01-20 03:08:00,33.0,16.9,30.18,SE,140,0.0,0.0,51,0.00,,---,0.00,VWS V14.00,2013-01-20 10:08:00,
2013-01-20 03:13:00,33.4,17.2,30.17,SE,140,0.0,0.0,51,0.00,,---,0.00,VWS V14.00,2013-01-20 10:13:00,
2013-01-20 03:18:00,33.7,17.5,30.17,SE,140,0.0,0.0,51,0.00,,---,0.00,VWS V14.00,2013-01-20 10:18:00,
2013-01-20 03:23:00,33.9,19.9,30.17,SE,140,0.0,0.0,56,0.00,,---,0.00,VWS V14.00,2013-01-20 10:23:00,
2013-01-20 03:28:00,34.1,17.9,30.17,SE,140,0.0,0.0,51,0.00,,---,0.00,VWS V14.00,2013-01-20 10:28:00,
2013-01-20 03:33:00,33.5,17.3,30.17,SE,140,0.0,0.0,51,0.00,,---,0.00,VWS V14.00,2013-01-20 10:33:00,
2013-01-20 03:39:00,32.8,17.6,30.17,SE,140,0.0,0.0,53,0.00,,---,0.00,VWS V14.00,2013-01-20 10:39:00,
2013-01-20 03:43:00,32.5,18.6,30.17,SE,140,0.0,0.0,56,0.00,,---,0.00,VWS V14.00,2013-01-20 10:43:00,
2013-01-20 03:48:00,33.2,20.4,30.17,SE,140,0.0,0.0,59,0.00,,---,0.00,VWS V14.00,2013-01-20 10:48:00,
2013-01-20 03:53:00,33.4,19.4,30.16,SE,140,0.0,0.0,56,0.00,,---,0.00,VWS V14.00,2013-01-20 10:53:00,
2013-01-20 03:59:00,33.5,19.5,30.16,SE,140,0.0,0.0,56,0.00,,---,0.00,VWS V14.00,2013-01-20 10:59:00,
2013-01-20 04:04:00,33.1,17.8,30.16,SE,140,0.0,0.0,53,0.00,,---,0.00,VWS V14.00,2013-01-20 11:04:00,
2013-01-20 04:09:00,31.9,17.6,30.17,SE,140,0.0,0.0,55,0.00,,---,0.00,VWS V14.00,2013-01-20 11:09:00,
2013-01-20 04:14:00,31.7,19.4,30.16,SE,140,0.0,0.0,60,0.00,,---,0.00,VWS V14.00,2013-01-20 11:14:00,
2013-01-20 04:19:00,31.4,17.5,30.16,SE,140,0.0,0.0,56,0.00,,---,0.00,VWS V14.00,2013-01-20 11:19:00,
2013-01-20 04:24:00,31.7,20.6,30.16,SE,140,0.0,0.0,63,0.00,,---,0.00,VWS V14.00,2013-01-20 11:24:00,
2013-01-20 04:29:00,32.5,19.8,30.16,SE,140,0.0,0.0,59,0.00,,---,0.00,VWS V14.00,2013-01-20 11:29:00,
2013-01-20 04:34:00,32.4,18.9,30.16,SE,140,0.0,0.0,57,0.00,,---,0.00,VWS V14.00,2013-01-20 11:34:00,
2013-01-20 04:39:00,32.0,18.5,30.15,SE,140,0.0,0.0,57,0.00,,---,0.00,VWS V14.00,2013-01-20 11:39:00,
2013-01-20 04:44:00,32.5,20.9,30.16,SE,140,0.0,0.0,62,0.00,,---,0.00,VWS V14.00,2013-01-20 11:44:00,
2013-01-20 04:49:00,34.7,22.2,30.16,SE,140,0.0,0.0,60,0.00,,---,0.00,VWS V14.00,2013-01-20 11:49:00,
2013-01-20 04:54:00,35.1,20.6,30.16,SE,140,0.0,0.0,55,0.00,,---,0.00,VWS V14.00,2013-01-20 11:54:00,
2013-01-20 04:59:00,35.3,22.0,30.16,SE,140,0.0,0.0,58,0.00,,---,0.00,VWS V14.00,2013-01-20 11:59:00,
2013-01-20 05:04:00,35.2,20.7,30.15,SE,140,0.0,0.0,55,0.00,,---,0.00,VWS V14.00,2013-01-20 12:04:00,
2013-01-20 05:09:00,34.8,19.9,30.16,SE,140,0.0,0.0,54,0.00,,---,0.00,VWS V14.00,2013-01-20 12:09:00,
2013-01-20 05:14:00,34.1,20.1,30.16,SE,140,0.0,0.0,56,0.00,,---,0.00,VWS V14.00,2013-01-20 12:14:00,
2013-01-20 05:19:00,33.7,19.7,30.16,SE,140,0.0,0.0,56,0.00,,---,0.00,VWS V14.00,2013-01-20 12:19:00,
2013-01-20 05:24:00,33.8,21.8,30.16,SE,140,0.0,0.0,61,0.00,,---,0.00,VWS V14.00,2013-01-20 12:24:00,
2013-01-20 05:29:00,34.5,20.4,30.16,SE,140,0.0,0.0,56,0.00,,---,0.00,VWS V14.00,2013-01-20 12:29:00,
2013-01-20 05:34:00,34.8,21.1,30.16,SE,140,0.0,0.0,57,0.00,,---,0.00,VWS V14.00,2013-01-20 12:34:00,
2013-01-20 05:39:00,33.8,19.4,30.16,SE,140,0.0,0.0,55,0.00,,---,0.00,VWS V14.00,2013-01-20 12:39:00,
2013-01-20 05:44:00,32.5,18.6,30.16,SE,140,0.0,0.0,56,0.00,,---,0.00,VWS V14.00,2013-01-20 12:44:00,
2013-01-20 05:49:00,31.5,18.4,30.16,SE,140,0.0,0.0,58,0.00,,---,0.00,VWS V14.00,2013-01-20 12:49:00,
2013-01-20 05:54:00,31.2,20.5,30.16,SE,140,0.0,0.0,64,0.00,,---,0.00,VWS V14.00,2013-01-20 12:54:00,
2013-01-20 05:59:00,30.8,18.6,30.16,SE,140,0.0,0.0,60,0.00,,---,0.00,VWS V14.00,2013-01-20 12:59:00,
2013-01-20 06:04:00,30.1,18.3,30.16,SE,140,0.0,0.0,61,0.00,,---,0.00,VWS V14.00,2013-01-20 13:04:00,
2013-01-20 06:09:00,30.3,19.2,30.16,SE,140,0.0,0.0,63,0.00,,---,0.00,VWS V14.00,2013-01-20 13:09:00,
2013-01-20 06:14:00,30.5,18.7,30.16,SE,140,0.0,0.0,61,0.00,,---,0.00,VWS V14.00,2013-01-20 13:14:00,
2013-01-20 06:19:00,30.3,19.6,30.16,SE,140,0.0,0.0,64,0.00,,---,0.00,VWS V14.00,2013-01-20 13:19:00,
2013-01-20 06:24:00,30.2,19.5,30.16,SE,140,0.0,0.0,64,0.00,,---,0.00,VWS V14.00,2013-01-20 13:24:00,
2013-01-20 06:29:00,31.0,21.3,30.16,SE,140,0.0,0.0,67,0.00,,---,0.00,VWS V14.00,2013-01-20 13:29:00,
2013-01-20 06:34:00,31.7,20.2,30.16,SE,140,0.0,0.0,62,0.00,,---,0.00,VWS V14.00,2013-01-20 13:34:00,
2013-01-20 06:39:00,31.8,20.7,30.16,SE,140,0.0,0.0,63,0.00,,---,0.00,VWS V14.00,2013-01-20 13:39:00,
2013-01-20 06:44:00,33.4,22.2,30.16,SE,140,0.0,0.0,63,0.00,,---,0.00,VWS V14.00,2013-01-20 13:44:00,
2013-01-20 06:49:00,34.5,20.4,30.17,SE,140,0.0,0.0,56,0.00,,---,0.00,VWS V14.00,2013-01-20 13:49:00,
2013-01-20 06:54:00,33.2,19.2,30.16,SE,140,0.0,0.0,56,0.00,,---,0.00,VWS V14.00,2013-01-20 13:54:00,
2013-01-20 06:59:00,31.8,19.9,30.16,SE,140,0.0,0.0,61,0.00,,---,0.00,VWS V14.00,2013-01-20 13:59:00,
2013-01-20 07:04:00,31.3,19.0,30.16,SE,140,0.0,0.0,60,0.00,,---,0.00,VWS V14.00,2013-01-20 14:04:00,
2013-01-20 07:09:00,30.5,19.0,30.16,SE,140,0.0,0.0,62,0.00,,---,0.00,VWS V14.00,2013-01-20 14:09:00,
2013-01-20 07:14:00,30.0,19.7,30.16,SE,140,0.0,0.0,65,0.00,,---,0.00,VWS V14.00,2013-01-20 14:14:00,
2013-01-20 07:19:00,29.9,19.6,30.16,SE,140,0.0,0.0,65,0.00,,---,0.00,VWS V14.00,2013-01-20 14:19:00,
2013-01-20 07:24:00,30.1,20.5,30.16,SE,140,0.0,0.0,67,0.00,,---,0.00,VWS V14.00,2013-01-20 14:24:00,
2013-01-20 07:29:00,30.6,21.3,30.16,SE,140,0.0,0.0,68,0.00,,---,0.00,VWS V14.00,2013-01-20 14:29:00,
2013-01-20 07:34:00,31.0,19.5,30.16,SE,140,0.0,0.0,62,0.00,,---,0.00,VWS V14.00,2013-01-20 14:34:00,
2013-01-20 07:40:00,30.2,19.1,30.16,SE,140,0.0,0.0,63,0.00,,---,0.00,VWS V14.00,2013-01-20 14:40:00,
2013-01-20 07:45:00,30.0,20.0,30.16,SE,140,0.0,0.0,66,0.00,,---,0.00,VWS V14.00,2013-01-20 14:45:00,
2013-01-20 07:50:00,30.0,20.0,30.16,SE,140,0.0,0.0,66,0.00,,---,0.00,VWS V14.00,2013-01-20 14:50:00,
2013-01-20 07:55:00,30.2,20.9,30.16,SE,140,0.0,0.0,68,0.00,,---,0.00,VWS V14.00,2013-01-20 14:55:00,
2013-01-20 08:00:00,31.1,21.8,30.16,SE,140,0.0,0.0,68,0.00,,---,0.00,VWS V14.00,2013-01-20 15:00:00,
2013-01-20 08:05:00,31.8,21.8,30.16,SE,140,0.0,0.0,66,0.00,,---,0.00,VWS V14.00,2013-01-20 15:05:00,
2013-01-20 08:10:00,32.9,23.2,30.16,SE,140,0.0,0.0,67,0.00,,---,0.00,VWS V14.00,2013-01-20 15:10:00,
2013-01-20 08:15:00,34.5,24.7,30.16,SE,140,0.0,0.0,67,0.00,,---,0.00,VWS V14.00,2013-01-20 15:15:00,
2013-01-20 08:20:00,36.6,26.3,30.16,SE,140,0.0,0.0,66,0.00,,---,0.00,VWS V14.00,2013-01-20 15:20:00,
2013-01-20 08:25:00,38.9,27.4,30.16,SE,140,0.0,0.0,63,0.00,,---,0.00,VWS V14.00,2013-01-20 15:25:00,
2013-01-20 08:30:00,40.8,28.0,30.17,SE,140,0.0,0.0,60,0.00,,---,0.00,VWS V14.00,2013-01-20 15:30:00,
2013-01-20 08:35:00,43.1,28.0,30.17,SE,140,0.0,0.0,55,0.00,,---,0.00,VWS V14.00,2013-01-20 15:35:00,
2013-01-20 08:40:00,45.8,26.7,30.17,SE,140,0.0,0.0,47,0.00,,---,0.00,VWS V14.00,2013-01-20 15:40:00,
2013-01-20 08:45:00,48.1,26.1,30.17,SE,140,0.0,0.0,42,0.00,,---,0.00,VWS V14.00,2013-01-20 15:45:00,
2013-01-20 08:50:00,50.2,25.6,30.17,SE,140,0.0,0.0,38,0.00,,---,0.00,VWS V14.00,2013-01-20 15:50:00,
2013-01-20 08:55:00,51.7,25.6,30.17,SE,140,0.0,0.0,36,0.00,,---,0.00,VWS V14.00,2013-01-20 15:55:00,
2013-01-20 09:00:00,52.9,26.0,30.17,SE,140,0.0,0.0,35,0.00,,---,0.00,VWS V14.00,2013-01-20 16:00:00,
2013-01-20 09:05:00,53.6,25.9,30.17,SE,140,0.0,0.0,34,0.00,,---,0.00,VWS V14.00,2013-01-20 16:05:00,
2013-01-20 09:10:00,53.8,26.1,30.17,SE,140,0.0,1.0,34,0.00,,---,0.00,VWS V14.00,2013-01-20 16:10:00,
2013-01-20 09:15:00,53.6,25.2,30.17,SE,140,1.0,2.0,33,0.00,,---,0.00,VWS V14.00,2013-01-20 16:15:00,
2013-01-20 09:20:00,53.6,25.9,30.17,SE,142,0.0,3.0,34,0.00,,---,0.00,VWS V14.00,2013-01-20 16:20:00,
2013-01-20 09:25:00,53.8,26.1,30.17,SE,146,0.0,3.0,34,0.00,,---,0.00,VWS V14.00,2013-01-20 16:25:00,
2013-01-20 09:30:00,54.1,25.6,30.17,SSE,155,0.0,3.0,33,0.00,,---,0.00,VWS V14.00,2013-01-20 16:30:00,
2013-01-20 09:35:00,54.5,25.3,30.17,SSE,155,0.0,0.0,32,0.00,,---,0.00,VWS V14.00,2013-01-20 16:35:00,
2013-01-20 09:40:00,55.0,25.7,30.17,South,182,0.0,0.0,32,0.00,,---,0.00,VWS V14.00,2013-01-20 16:40:00,
2013-01-20 09:45:00,55.5,25.4,30.17,South,182,1.0,3.0,31,0.00,,---,0.00,VWS V14.00,2013-01-20 16:45:00,
2013-01-20 09:50:00,55.8,25.6,30.17,South,182,1.0,3.0,31,0.00,,---,0.00,VWS V14.00,2013-01-20 16:50:00,
2013-01-20 09:55:00,56.1,25.1,30.17,SW,230,2.0,5.0,30,0.00,,---,0.00,VWS V14.00,2013-01-20 16:55:00,
2013-01-20 10:00:00,56.5,24.6,30.17,WSW,246,0.0,5.0,29,0.00,,---,0.00,VWS V14.00,2013-01-20 17:00:00,
2013-01-20 10:05:00,57.2,25.2,30.17,WSW,246,0.0,2.0,29,0.00,,---,0.00,VWS V14.00,2013-01-20 17:05:00,
2013-01-20 10:10:00,57.7,24.8,30.17,West,273,2.0,5.0,28,0.00,,---,0.00,VWS V14.00,2013-01-20 17:10:00,
2013-01-20 10:15:00,58.0,25.1,30.17,WNW,288,0.0,5.0,28,0.00,,---,0.00,VWS V14.00,2013-01-20 17:15:00,
2013-01-20 10:20:00,57.7,24.0,30.17,WNW,295,0.0,5.0,27,0.00,,---,0.00,VWS V14.00,2013-01-20 17:20:00,
2013-01-20 10:25:00,57.8,24.9,30.17,NW,310,1.0,5.0,28,0.00,,---,0.00,VWS V14.00,2013-01-20 17:25:00,
2013-01-20 10:30:00,57.9,24.1,30.17,NW,309,0.0,5.0,27,0.00,,---,0.00,VWS V14.00,2013-01-20 17:30:00,
2013-01-20 10:35:00,58.3,24.5,30.17,WNW,300,0.0,6.0,27,0.00,,---,0.00,VWS V14.00,2013-01-20 17:35:00,
2013-01-20 10:40:00,58.6,24.8,30.17,WNW,286,0.0,6.0,27,0.00,,---,0.00,VWS V14.00,2013-01-20 17:40:00,
2013-01-20 10:45:00,58.9,25.0,30.17,West,280,3.0,6.0,27,0.00,,---,0.00,VWS V14.00,2013-01-20 17:45:00,
2013-01-20 10:50:00,59.2,25.3,30.16,West,277,0.0,6.0,27,0.00,,---,0.00,VWS V14.00,2013-01-20 17:50:00,
2013-01-20 10:55:00,59.6,24.7,30.16,WNW,302,3.0,7.0,26,0.00,,---,0.00,VWS V14.00,2013-01-20 17:55:00,
2013-01-20 11:00:00,59.7,24.8,30.16,West,273,6.0,7.0,26,0.00,,---,0.00,VWS V14.00,2013-01-20 18:00:00,
2013-01-20 11:05:00,60.0,25.0,30.16,NW,316,4.0,6.0,26,0.00,,---,0.00,VWS V14.00,2013-01-20 18:05:00,
2013-01-20 11:10:00,60.2,25.2,30.16,NW,316,0.0,6.0,26,0.00,,---,0.00,VWS V14.00,2013-01-20 18:10:00,
2013-01-20 11:15:00,60.6,25.5,30.15,WNW,295,5.0,6.0,26,0.00,,---,0.00,VWS V14.00,2013-01-20 18:15:00,
2013-01-20 11:20:00,61.0,25.9,30.15,WNW,297,0.0,6.0,26,0.00,,---,0.00,VWS V14.00,2013-01-20 18:20:00,
2013-01-20 11:25:00,61.3,25.2,30.15,NW,313,0.0,7.0,25,0.00,,---,0.00,VWS V14.00,2013-01-20 18:25:00,
2013-01-20 11:30:00,61.7,25.5,30.15,NW,306,2.0,9.0,25,0.00,,---,0.00,VWS V14.00,2013-01-20 18:30:00,
2013-01-20 11:35:00,62.3,26.1,30.14,WNW,289,2.0,6.0,25,0.00,,---,0.00,VWS V14.00,2013-01-20 18:35:00,
2013-01-20 11:40:00,62.5,26.2,30.14,West,269,3.0,8.0,25,0.00,,---,0.00,VWS V14.00,2013-01-20 18:40:00,
2013-01-20 11:45:00,62.4,26.1,30.14,NW,310,5.0,10.0,25,0.00,,---,0.00,VWS V14.00,2013-01-20 18:45:00,
2013-01-20 11:50:00,62.8,26.5,30.14,WNW,292,5.0,10.0,25,0.00,,---,0.00,VWS V14.00,2013-01-20 18:50:00,
2013-01-20 11:55:00,63.1,26.7,30.14,WNW,298,5.0,10.0,25,0.00,,---,0.00,VWS V14.00,2013-01-20 18:55:00,
2013-01-20 12:00:00,63.5,26.1,30.13,NW,313,4.0,10.0,24,0.00,,---,0.00,VWS V14.00,2013-01-20 19:00:00,
2013-01-20 12:05:00,63.7,26.3,30.13,NW,317,6.0,10.0,24,0.00,,---,0.00,VWS V14.00,2013-01-20 19:05:00,
2013-01-20 12:10:00,64.1,26.6,30.12,WNW,294,5.0,10.0,24,0.00,,---,0.00,VWS V14.00,2013-01-20 19:10:00,
2013-01-20 12:15:00,64.4,26.9,30.12,NW,308,7.0,10.0,24,0.00,,---,0.00,VWS V14.00,2013-01-20 19:15:00,
2013-01-20 12:20:00,64.9,27.3,30.11,NNW,327,4.0,10.0,24,0.00,,---,0.00,VWS V14.00,2013-01-20 19:20:00,
2013-01-20 12:25:00,65.2,27.5,30.11,WSW,253,3.0,10.0,24,0.00,,---,0.00,VWS V14.00,2013-01-20 19:25:00,
2013-01-20 12:30:00,65.0,27.4,30.11,SW,225,2.0,10.0,24,0.00,,---,0.00,VWS V14.00,2013-01-20 19:30:00,
2013-01-20 12:35:00,64.7,28.1,30.10,NW,312,4.0,6.0,25,0.00,,---,0.00,VWS V14.00,2013-01-20 19:35:00,
2013-01-20 12:40:00,65.0,28.4,30.10,WNW,295,5.0,6.0,25,0.00,,---,0.00,VWS V14.00,2013-01-20 19:40:00,
2013-01-20 12:45:00,65.4,27.7,30.09,NW,305,2.0,7.0,24,0.00,,---,0.00,VWS V14.00,2013-01-20 19:45:00,
2013-01-20 12:50:00,65.4,27.7,30.08,NW,307,2.0,7.0,24,0.00,,---,0.00,VWS V14.00,2013-01-20 19:50:00,
2013-01-20 12:55:00,65.4,28.7,30.08,West,263,1.0,7.0,25,0.00,,---,0.00,VWS V14.00,2013-01-20 19:55:00,
2013-01-20 13:00:00,65.5,29.7,30.08,NW,307,1.0,7.0,26,0.00,,---,0.00,VWS V14.00,2013-01-20 20:00:00,
2013-01-20 13:05:00,66.3,29.5,30.07,South,183,0.0,9.0,25,0.00,,---,0.00,VWS V14.00,2013-01-20 20:05:00,
2013-01-20 13:10:00,67.1,31.1,30.07,SE,134,0.0,9.0,26,0.00,,---,0.00,VWS V14.00,2013-01-20 20:10:00,
2013-01-20 13:15:00,67.4,32.3,30.06,SSE,152,0.0,9.0,27,0.00,,---,0.00,VWS V14.00,2013-01-20 20:15:00,
2013-01-20 13:20:00,67.4,31.4,30.06,SSW,192,5.0,10.0,26,0.00,,---,0.00,VWS V14.00,2013-01-20 20:20:00,
2013-01-20 13:25:00,67.0,32.0,30.06,SW,223,4.0,10.0,27,0.00,,---,0.00,VWS V14.00,2013-01-20 20:25:00,
2013-01-20 13:30:00,66.8,31.8,30.06,SW,214,0.0,10.0,27,0.00,,---,0.00,VWS V14.00,2013-01-20 20:30:00,
2013-01-20 13:35:00,66.8,31.8,30.06,SW,216,0.0,7.0,27,0.00,,---,0.00,VWS V14.00,2013-01-20 20:35:00,
2013-01-20 13:40:00,66.9,31.9,30.05,SW,217,0.0,7.0,27,0.00,,---,0.00,VWS V14.00,2013-01-20 20:40:00,
2013-01-20 13:45:00,66.9,31.9,30.05,SW,221,0.0,7.0,27,0.00,,---,0.00,VWS V14.00,2013-01-20 20:45:00,
2013-01-20 13:50:00,67.0,32.0,30.05,WSW,251,0.0,7.0,27,0.00,,---,0.00,VWS V14.00,2013-01-20 20:50:00,
2013-01-20 13:55:00,67.4,31.4,30.05,West,264,6.0,9.0,26,0.00,,---,0.00,VWS V14.00,2013-01-20 20:55:00,
2013-01-20 14:00:00,67.1,31.1,30.04,South,183,0.0,9.0,26,0.00,,---,0.00,VWS V14.00,2013-01-20 21:00:00,
2013-01-20 14:05:00,67.1,31.1,30.04,West,271,0.0,5.0,26,0.00,,---,0.00,VWS V14.00,2013-01-20 21:05:00,
2013-01-20 14:10:00,67.0,31.0,30.04,SW,228,0.0,7.0,26,0.00,,---,0.00,VWS V14.00,2013-01-20 21:10:00,
2013-01-20 14:15:00,67.2,31.2,30.04,SW,231,3.0,7.0,26,0.00,,---,0.00,VWS V14.00,2013-01-20 21:15:00,
2013-01-20 14:21:00,67.5,29.5,30.04,SW,232,3.0,7.0,24,0.00,,---,0.00,VWS V14.00,2013-01-20 21:21:00,
2013-01-20 14:26:00,67.2,29.2,30.03,NW,313,0.0,9.0,24,0.00,,---,0.00,VWS V14.00,2013-01-20 21:26:00,
2013-01-20 14:31:00,67.4,30.4,30.04,SW,232,3.0,10.0,25,0.00,,---,0.00,VWS V14.00,2013-01-20 21:31:00,
2013-01-20 14:36:00,67.8,28.7,30.04,WSW,249,4.0,10.0,23,0.00,,---,0.00,VWS V14.00,2013-01-20 21:36:00,
2013-01-20 14:41:00,67.7,28.6,30.04,WNW,290,5.0,10.0,23,0.00,,---,0.00,VWS V14.00,2013-01-20 21:41:00,
2013-01-20 14:46:00,67.9,27.7,30.04,West,261,0.0,10.0,22,0.00,,---,0.00,VWS V14.00,2013-01-20 21:46:00,
2013-01-20 14:51:00,68.0,28.9,30.03,WNW,295,6.0,11.0,23,0.00,,---,0.00,VWS V14.00,2013-01-20 21:51:00,
2013-01-20 14:56:00,67.9,29.8,30.03,NW,306,9.0,11.0,24,0.00,,---,0.00,VWS V14.00,2013-01-20 21:56:00,
2013-01-20 15:01:00,67.7,29.6,30.03,NW,314,2.0,11.0,24,0.00,,---,0.00,VWS V14.00,2013-01-20 22:01:00,
2013-01-20 15:06:00,67.7,28.6,30.03,NW,318,3.0,8.0,23,0.00,,---,0.00,VWS V14.00,2013-01-20 22:06:00,
2013-01-20 15:11:00,67.8,27.6,30.03,West,279,0.0,8.0,22,0.00,,---,0.00,VWS V14.00,2013-01-20 22:11:00,
2013-01-20 15:16:00,67.9,28.8,30.02,West,277,2.0,8.0,23,0.00,,---,0.00,VWS V14.00,2013-01-20 22:16:00,
2013-01-20 15:21:00,68.1,27.9,30.02,SSW,209,4.0,10.0,22,0.00,,---,0.00,VWS V14.00,2013-01-20 22:21:00,
2013-01-20 15:26:00,68.2,27.9,30.02,NNW,328,3.0,10.0,22,0.00,,---,0.00,VWS V14.00,2013-01-20 22:26:00,
2013-01-20 15:31:00,68.0,28.9,30.02,West,267,5.0,10.0,23,0.00,,---,0.00,VWS V14.00,2013-01-20 22:31:00,
2013-01-20 15:36:00,67.7,29.6,30.02,WNW,284,6.0,14.0,24,0.00,,---,0.00,VWS V14.00,2013-01-20 22:36:00,
2013-01-20 15:41:00,67.4,29.4,30.02,NW,319,3.0,14.0,24,0.00,,---,0.00,VWS V14.00,2013-01-20 22:41:00,
2013-01-20 15:46:00,67.4,29.4,30.02,NW,315,8.0,14.0,24,0.00,,---,0.00,VWS V14.00,2013-01-20 22:46:00,
2013-01-20 15:51:00,67.5,29.5,30.01,WNW,290,0.0,14.0,24,0.00,,---,0.00,VWS V14.00,2013-01-20 22:51:00,
2013-01-20 15:56:00,67.5,29.5,30.02,WNW,296,3.0,14.0,24,0.00,,---,0.00,VWS V14.00,2013-01-20 22:56:00,
2013-01-20 16:01:00,67.3,29.3,30.02,West,267,5.0,14.0,24,0.00,,---,0.00,VWS V14.00,2013-01-20 23:01:00,
2013-01-20 16:06:00,67.1,29.1,30.01,NW,319,2.0,8.0,24,0.00,,---,0.00,VWS V14.00,2013-01-20 23:06:00,
2013-01-20 16:11:00,66.7,28.8,30.02,NW,320,5.0,11.0,24,0.00,,---,0.00,VWS V14.00,2013-01-20 23:11:00,
2013-01-20 16:16:00,66.2,28.4,30.01,NNW,329,4.0,11.0,24,0.00,,---,0.00,VWS V14.00,2013-01-20 23:16:00,
2013-01-20 16:21:00,66.1,28.3,30.01,NNW,340,6.0,11.0,24,0.00,,---,0.00,VWS V14.00,2013-01-20 23:21:00,
2013-01-20 16:26:00,65.8,29.0,30.01,NNW,342,4.0,11.0,25,0.00,,---,0.00,VWS V14.00,2013-01-20 23:26:00,
2013-01-20 16:31:00,65.6,28.9,30.01,NNW,333,4.0,4.0,25,0.00,,---,0.00,VWS V14.00,2013-01-20 23:31:00,
2013-01-20 16:36:00,65.9,29.1,30.01,North,351,4.0,7.0,25,0.00,,---,0.00,VWS V14.00,2013-01-20 23:36:00,
2013-01-20 16:42:00,66.1,29.3,30.01,North,5,3.0,7.0,25,0.00,,---,0.00,VWS V14.00,2013-01-20 23:42:00,
2013-01-20 16:47:00,66.2,29.4,30.01,NNE,13,3.0,7.0,25,0.00,,---,0.00,VWS V14.00,2013-01-20 23:47:00,
2013-01-20 16:52:00,65.9,29.1,30.01,NNE,22,3.0,7.0,25,0.00,,---,0.00,VWS V14.00,2013-01-20 23:52:00,
2013-01-20 16:57:00,65.4,28.7,30.02,NNE,22,0.0,7.0,25,0.00,,---,0.00,VWS V14.00,2013-01-20 23:57:00,
2013-01-20 17:02:00,64.9,29.2,30.02,NNE,22,0.0,0.0,26,0.00,,---,0.00,VWS V14.00,2013-01-21 00:02:00,
2013-01-20 17:07:00,64.1,28.5,30.02,NE,34,0.0,6.0,26,0.00,,---,0.00,VWS V14.00,2013-01-21 00:07:00,
2013-01-20 17:12:00,63.5,29.0,30.02,NE,37,2.0,6.0,27,0.00,,---,0.00,VWS V14.00,2013-01-21 00:12:00,
2013-01-20 17:17:00,62.7,28.3,30.02,NE,38,4.0,8.0,27,0.00,,---,0.00,VWS V14.00,2013-01-21 00:17:00,
2013-01-20 17:22:00,62.2,27.8,30.02,NE,38,0.0,8.0,27,0.00,,---,0.00,VWS V14.00,2013-01-21 00:22:00,
2013-01-20 17:27:00,61.6,28.2,30.02,NE,46,4.0,8.0,28,0.00,,---,0.00,VWS V14.00,2013-01-21 00:27:00,
2013-01-20 17:32:00,60.9,27.6,30.02,NE,47,0.0,0.0,28,0.00,,---,0.00,VWS V14.00,2013-01-21 00:32:00,
2013-01-20 17:37:00,60.4,28.0,30.02,NE,47,0.0,3.0,29,0.00,,---,0.00,VWS V14.00,2013-01-21 00:37:00,
2013-01-20 17:42:00,59.6,28.1,30.02,NE,47,2.0,3.0,30,0.00,,---,0.00,VWS V14.00,2013-01-21 00:42:00,
2013-01-20 17:48:00,58.8,27.5,30.02,NE,47,0.0,3.0,30,0.00,,---,0.00,VWS V14.00,2013-01-21 00:48:00,
2013-01-20 17:53:00,58.3,27.8,30.02,NE,47,0.0,3.0,31,0.00,,---,0.00,VWS V14.00,2013-01-21 00:53:00,
2013-01-20 17:58:00,57.8,27.4,30.02,NE,47,2.0,3.0,31,0.00,,---,0.00,VWS V14.00,2013-01-21 00:58:00,
2013-01-20 18:03:00,57.4,27.8,30.02,NE,47,0.0,0.0,32,0.00,,---,0.00,VWS V14.00,2013-01-21 01:03:00,
2013-01-20 18:08:00,56.9,27.4,30.02,NE,47,0.0,4.0,32,0.00,,---,0.00,VWS V14.00,2013-01-21 01:08:00,
2013-01-20 18:13:00,56.2,27.5,30.02,NE,47,0.0,4.0,33,0.00,,---,0.00,VWS V14.00,2013-01-21 01:13:00,
2013-01-20 18:18:00,55.7,27.8,30.03,NE,47,3.0,4.0,34,0.00,,---,0.00,VWS V14.00,2013-01-21 01:18:00,
2013-01-20 18:23:00,55.3,27.4,30.03,NE,47,0.0,4.0,34,0.00,,---,0.00,VWS V14.00,2013-01-21 01:23:00,
2013-01-20 18:28:00,55.1,27.3,30.03,NE,47,0.0,4.0,34,0.00,,---,0.00,VWS V14.00,2013-01-21 01:28:00,
2013-01-20 18:33:00,54.9,27.1,30.04,NE,47,0.0,0.0,34,0.00,,---,0.00,VWS V14.00,2013-01-21 01:33:00,
2013-01-20 18:38:00,54.6,27.5,30.04,NE,47,3.0,3.0,35,0.00,,---,0.00,VWS V14.00,2013-01-21 01:38:00,
2013-01-20 18:43:00,54.5,27.4,30.03,NE,47,2.0,3.0,35,0.00,,---,0.00,VWS V14.00,2013-01-21 01:43:00,
2013-01-20 18:48:00,54.7,27.6,30.04,NE,47,0.0,3.0,35,0.00,,---,0.00,VWS V14.00,2013-01-21 01:48:00,
2013-01-20 18:53:00,54.7,27.6,30.03,NE,47,0.0,3.0,35,0.00,,---,0.00,VWS V14.00,2013-01-21 01:53:00,
2013-01-20 18:58:00,54.6,27.5,30.04,NE,47,2.0,3.0,35,0.00,,---,0.00,VWS V14.00,2013-01-21 01:58:00,
2013-01-20 19:03:00,54.7,27.6,30.03,NE,46,2.0,5.0,35,0.00,,---,0.00,VWS V14.00,2013-01-21 02:03:00,
2013-01-20 19:08:00,55.1,28.6,30.04,ENE,59,3.0,9.0,36,0.00,,---,0.00,VWS V14.00,2013-01-21 02:08:00,
2013-01-20 19:13:00,55.4,28.2,30.04,ENE,59,0.0,9.0,35,0.00,,---,0.00,VWS V14.00,2013-01-21 02:13:00,
2013-01-20 19:18:00,55.0,27.9,30.04,ENE,59,3.0,9.0,35,0.00,,---,0.00,VWS V14.00,2013-01-21 02:18:00,
2013-01-20 19:23:00,55.0,27.9,30.04,ENE,60,4.0,9.0,35,0.00,,---,0.00,VWS V14.00,2013-01-21 02:23:00,
2013-01-20 19:28:00,54.6,28.2,30.04,ENE,60,2.0,9.0,36,0.00,,---,0.00,VWS V14.00,2013-01-21 02:28:00,
2013-01-20 19:33:00,54.1,28.4,30.04,ENE,60,2.0,3.0,37,0.00,,---,0.00,VWS V14.00,2013-01-21 02:33:00,
2013-01-20 19:38:00,53.8,28.2,30.05,ENE,60,0.0,3.0,37,0.00,,---,0.00,VWS V14.00,2013-01-21 02:38:00,
2013-01-20 19:43:00,53.6,28.6,30.05,ENE,60,4.0,4.0,38,0.00,,---,0.00,VWS V14.00,2013-01-21 02:43:00,
2013-01-20 19:48:00,53.5,28.5,30.05,ENE,60,2.0,4.0,38,0.00,,---,0.00,VWS V14.00,2013-01-21 02:48:00,
2013-01-20 19:53:00,53.3,28.4,30.05,ENE,61,3.0,4.0,38,0.00,,---,0.00,VWS V14.00,2013-01-21 02:53:00,
2013-01-20 19:58:00,53.4,29.1,30.05,ENE,63,2.0,5.0,39,0.00,,---,0.00,VWS V14.00,2013-01-21 02:58:00,
2013-01-20 20:03:00,53.8,28.8,30.05,ENE,65,2.0,5.0,38,0.00,,---,0.00,VWS V14.00,2013-01-21 03:03:00,
2013-01-20 20:08:00,53.8,28.8,30.05,ENE,65,3.0,5.0,38,0.00,,---,0.00,VWS V14.00,2013-01-21 03:08:00,
2013-01-20 20:13:00,53.7,28.7,30.05,ENE,65,3.0,5.0,38,0.00,,---,0.00,VWS V14.00,2013-01-21 03:13:00,
2013-01-20 20:18:00,53.9,28.9,30.05,ENE,66,3.0,5.0,38,0.00,,---,0.00,VWS V14.00,2013-01-21 03:18:00,
2013-01-20 20:23:00,53.7,28.7,30.05,ENE,67,5.0,5.0,38,0.00,,---,0.00,VWS V14.00,2013-01-21 03:23:00,
2013-01-20 20:28:00,53.4,28.5,30.05,ENE,70,5.0,5.0,38,0.00,,---,0.00,VWS V14.00,2013-01-21 03:28:00,
2013-01-20 20:33:00,53.3,29.0,30.05,ENE,71,3.0,5.0,39,0.00,,---,0.00,VWS V14.00,2013-01-21 03:33:00,
2013-01-20 20:38:00,53.3,29.0,30.05,ENE,74,2.0,6.0,39,0.00,,---,0.00,VWS V14.00,2013-01-21 03:38:00,
2013-01-20 20:43:00,53.3,29.0,30.06,ENE,75,1.0,6.0,39,0.00,,---,0.00,VWS V14.00,2013-01-21 03:43:00,
2013-01-20 20:48:00,53.2,28.9,30.06,ENE,75,0.0,6.0,39,0.00,,---,0.00,VWS V14.00,2013-01-21 03:48:00,
2013-01-20 20:54:00,52.8,28.5,30.06,ENE,75,0.0,6.0,39,0.00,,---,0.00,VWS V14.00,2013-01-21 03:54:00,
2013-01-20 20:59:00,52.3,28.7,30.05,ENE,75,0.0,6.0,40,0.00,,---,0.00,VWS V14.00,2013-01-21 03:59:00,
2013-01-20 21:04:00,51.8,28.3,30.06,ENE,75,0.0,3.0,40,0.00,,---,0.00,VWS V14.00,2013-01-21 04:04:00,
2013-01-20 21:09:00,51.7,28.8,30.06,ENE,75,0.0,3.0,41,0.00,,---,0.00,VWS V14.00,2013-01-21 04:09:00,
2013-01-20 21:14:00,51.6,28.7,30.06,ENE,75,0.0,3.0,41,0.00,,---,0.00,VWS V14.00,2013-01-21 04:14:00,
2013-01-20 21:19:00,51.4,28.5,30.06,ENE,75,2.0,3.0,41,0.00,,---,0.00,VWS V14.00,2013-01-21 04:19:00,
2013-01-20 21:24:00,51.2,28.9,30.06,ENE,75,3.0,4.0,42,0.00,,---,0.00,VWS V14.00,2013-01-21 04:24:00,
2013-01-20 21:29:00,51.2,28.9,30.06,ENE,75,0.0,4.0,42,0.00,,---,0.00,VWS V14.00,2013-01-21 04:29:00,
2013-01-20 21:34:00,51.2,28.9,30.06,ENE,75,0.0,0.0,42,0.00,,---,0.00,VWS V14.00,2013-01-21 04:34:00,
2013-01-20 21:39:00,51.1,28.8,30.06,ENE,75,0.0,0.0,42,0.00,,---,0.00,VWS V14.00,2013-01-21 04:39:00,
2013-01-20 21:44:00,51.0,28.7,30.06,ENE,75,2.0,3.0,42,0.00,,---,0.00,VWS V14.00,2013-01-21 04:44:00,
2013-01-20 21:49:00,50.9,28.6,30.06,ENE,75,2.0,4.0,42,0.00,,---,0.00,VWS V14.00,2013-01-21 04:49:00,
2013-01-20 21:54:00,51.0,28.7,30.06,ENE,75,2.0,4.0,42,0.00,,---,0.00,VWS V14.00,2013-01-21 04:54:00,
2013-01-20 21:59:00,50.9,28.6,30.07,ENE,75,2.0,4.0,42,0.00,,---,0.00,VWS V14.00,2013-01-21 04:59:00,
2013-01-20 22:01:00,50.9,28.6,30.06,ENE,75,3.0,4.0,42,0.00,,---,0.00,VWS V14.00,2013-01-21 05:01:00,
2013-01-20 22:02:00,50.9,28.6,30.06,ENE,75,3.0,3.0,42,0.00,,---,0.00,VWS V14.00,2013-01-21 05:02:00,
2013-01-20 22:03:00,50.9,28.6,30.06,ENE,75,3.0,4.0,42,0.00,,---,0.00,VWS V14.00,2013-01-21 05:03:00,
2013-01-20 22:08:00,51.1,28.8,30.07,ENE,75,4.0,4.0,42,0.00,,---,0.00,VWS V14.00,2013-01-21 05:08:00,
2013-01-20 22:13:00,51.3,29.0,30.06,ENE,78,4.0,5.0,42,0.00,,---,0.00,VWS V14.00,2013-01-21 05:13:00,
2013-01-20 22:18:00,51.5,29.2,30.06,East,80,4.0,5.0,42,0.00,,---,0.00,VWS V14.00,2013-01-21 05:18:00,
2013-01-20 22:23:00,51.8,29.5,30.06,SSE,153,2.0,6.0,42,0.00,,---,0.00,VWS V14.00,2013-01-21 05:23:00,
2013-01-20 22:28:00,51.9,29.0,30.06,SE,144,4.0,6.0,41,0.00,,---,0.00,VWS V14.00,2013-01-21 05:28:00,
2013-01-20 22:33:00,52.2,29.2,30.06,SE,138,4.0,6.0,41,0.00,,---,0.00,VWS V14.00,2013-01-21 05:33:00,
2013-01-20 22:38:00,51.9,29.0,30.06,SE,135,2.0,6.0,41,0.00,,---,0.00,VWS V14.00,2013-01-21 05:38:00,
2013-01-20 22:43:00,51.6,29.3,30.07,SE,134,3.0,6.0,42,0.00,,---,0.00,VWS V14.00,2013-01-21 05:43:00,
2013-01-20 22:48:00,51.5,29.2,30.06,SE,133,3.0,6.0,42,0.00,,---,0.00,VWS V14.00,2013-01-21 05:48:00,
2013-01-20 22:53:00,51.4,29.1,30.07,SE,133,2.0,6.0,42,0.00,,---,0.00,VWS V14.00,2013-01-21 05:53:00,
2013-01-20 22:58:00,51.3,29.0,30.07,SE,133,3.0,6.0,42,0.00,,---,0.00,VWS V14.00,2013-01-21 05:58:00,
2013-01-20 23:03:00,51.4,29.1,30.07,SE,133,2.0,4.0,42,0.00,,---,0.00,VWS V14.00,2013-01-21 06:03:00,
2013-01-20 23:08:00,51.6,29.3,30.07,SE,133,3.0,5.0,42,0.00,,---,0.00,VWS V14.00,2013-01-21 06:08:00,
2013-01-20 23:13:00,51.6,29.3,30.06,SE,133,2.0,5.0,42,0.00,,---,0.00,VWS V14.00,2013-01-21 06:13:00,
2013-01-20 23:18:00,51.0,28.1,30.06,SE,133,2.0,5.0,41,0.00,,---,0.00,VWS V14.00,2013-01-21 06:18:00,
2013-01-20 23:24:00,50.7,28.5,30.07,SE,133,2.0,5.0,42,0.00,,---,0.00,VWS V14.00,2013-01-21 06:24:00,
2013-01-20 23:29:00,50.7,29.0,30.07,SE,133,3.0,5.0,43,0.00,,---,0.00,VWS V14.00,2013-01-21 06:29:00,
2013-01-20 23:34:00,50.7,28.5,30.07,SE,133,0.0,0.0,42,0.00,,---,0.00,VWS V14.00,2013-01-21 06:34:00,
2013-01-20 23:39:00,50.5,28.3,30.07,SE,133,0.0,0.0,42,0.00,,---,0.00,VWS V14.00,2013-01-21 06:39:00,
2013-01-20 23:44:00,49.6,28.0,30.06,SE,133,0.0,0.0,43,0.00,,---,0.00,VWS V14.00,2013-01-21 06:44:00,
2013-01-20 23:49:00,48.6,27.1,30.06,SE,133,0.0,0.0,43,0.00,,---,0.00,VWS V14.00,2013-01-21 06:49:00,
2013-01-20 23:54:00,47.7,27.4,30.06,SE,133,0.0,0.0,45,0.00,,---,0.00,VWS V14.00,2013-01-21 06:54:00,
2013-01-20 23:59:00,46.7,27.0,30.06,SE,133,0.0,0.0,46,0.00,,---,0.00,VWS V14.00,2013-01-21 06:59:00,